Oriana — ZCDU9 — position and weather

sailwx.info

Track history (hours):
 
Tides and Currents Weather Stations Pressure Air Temp Water Temp Dewpoint Dewpoint Depression Visibility Wind Speed Wind Dir Waves Ship Positions

Oriana (Bermuda)

Last reported at 2014-Nov-22 15:23 UTC. Time now 2014-Nov-22 16:17 UTC.
Position N 50°54' W 001°24'.

Length 261 m; beam 32.2 m; draft 8.2 m.

Type: Ship. MMSI: 310529000.

Date/timePositionNaut miles runAvg speedWind from/ knotsBaromVisibWave heightAir tempDewpointWater temp
2014-Nov-22 15:23N 50°54' W 001°24'0 0.0
2014-Nov-22 14:29N 50°54' W 001°24'0 0.0
2014-Nov-22 13:29N 50°54' W 001°24'0 0.0
2014-Nov-22 12:29N 50°54' W 001°24'0 0.0
2014-Nov-22 11:20N 50°54' W 001°24'0 0.0
2014-Nov-22 10:29N 50°54' W 001°24'0 0.0
2014-Nov-22 09:29N 50°54' W 001°24'0 0.0
2014-Nov-22 08:17N 50°54' W 001°24'0 0.0
2014-Nov-22 07:05N 50°54' W 001°24'1 1.4
2014-Nov-22 06:32N 50°53' W 001°24'8 7.5
2014-Nov-22 05:30N 50°45' W 001°22'3213.2
2014-Nov-22 03:04N 50°23' W 001°59'714.4
2014-Nov-22 02:33N 50°18' W 002°08'1413.7
2014-Nov-22 01:33N 50°08' W 002°21'19413.8
2014-Nov-21 11:30N 47°54' W 005°55'1514.7
2014-Nov-21 10:31N 47°41' W 006°06'1415.1
2014-Nov-21 09:33N 47°29' W 006°17'1414.5
2014-Nov-21 08:33N 47°16' W 006°27'1220.7
2014-Nov-21 08:00N 47°06' W 006°36'35014.6 170 / 81012.2 5.4 15.014.714.0
2014-Nov-20 08:00N 41°42' W 009°42'15114.5 140 / 251008.8 5.4 17.415.416.0
2014-Nov-19 21:31N 39°11' W 009°45'2014.8
2014-Nov-19 20:11N 38°51' W 009°43'1114.8
2014-Nov-19 19:28N 38°40' W 009°41'1313.9
2014-Nov-19 18:31N 38°36' W 009°25'1212.0
2014-Nov-19 17:32N 38°41' W 009°12'3 3.4
2014-Nov-19 16:33N 38°43' W 009°07'0 0.0
2014-Nov-19 15:32N 38°43' W 009°07'0 0.0
2014-Nov-19 14:31N 38°43' W 009°07'0 0.0
2014-Nov-19 13:32N 38°43' W 009°07'0 0.0
2014-Nov-19 12:32N 38°43' W 009°07'0 0.0
2014-Nov-19 11:31N 38°43' W 009°07'0 0.0
2014-Nov-19 10:33N 38°43' W 009°07'0 0.0
2014-Nov-19 09:32N 38°43' W 009°07'0 0.3
2014-Nov-19 08:33N 38°42' W 009°07'10 9.8
2014-Nov-19 07:33N 38°40' W 009°19'5517.6
2014-Nov-19 04:24N 37°53' W 009°56'1719.0
2014-Nov-19 03:29N 37°37' W 010°07'1818.7
2014-Nov-19 02:32N 37°22' W 010°18'52918.5
2014-Nov-17 22:00N 29°36' W 015°18'6816.9 260 / 101014.510.8 21.817.823.0
2014-Nov-17 18:00N 28°36' W 015°54'   280 / 161012.510.8 22.317.823.0
2014-Nov-14 21:00N 31°36' W 017°00'1014.8 340 / 171019.810.8 21.015.723.0
2014-Nov-14 20:19N 31°45' W 017°04'1315.9
2014-Nov-14 19:32N 31°57' W 017°02'1616.3
2014-Nov-14 18:33N 32°13' W 016°59'1717.4
2014-Nov-14 17:33N 32°30' W 016°56'8 7.5
2014-Nov-14 16:28N 32°39' W 016°55'0 0.0
2014-Nov-14 15:26N 32°39' W 016°55'0 0.0
2014-Nov-14 14:34N 32°39' W 016°55'0 0.0
2014-Nov-14 12:31N 32°39' W 016°55'0 0.0
2014-Nov-14 11:32N 32°39' W 016°55'0 0.0
2014-Nov-14 10:29N 32°39' W 016°55'0 0.0
2014-Nov-14 09:29N 32°39' W 016°55'0 0.0
2014-Nov-14 08:29N 32°39' W 016°55'0 0.2
2014-Nov-14 07:33N 32°39' W 016°54'5 5.0
2014-Nov-14 06:33N 32°38' W 016°49'19914.7
2014-Nov-13 17:00N 35°30' W 014°48'   260 / 251009.410.8 20.517.321.0
Track history (hours):
 
Tides and Currents Weather Stations Pressure Air Temp Water Temp Dewpoint Dewpoint Depression Visibility Wind Speed Wind Dir Waves Ship Positions

Oriana (Bermuda)

Last reported at 2014-Nov-22 15:23 UTC. Time now 2014-Nov-22 16:17 UTC.
Position N 50°54' W 001°24'.

Length 261 m; beam 32.2 m; draft 8.2 m.

Type: Ship. MMSI: 310529000.

Date/timePositionNaut miles runAvg speedWind from/ knotsBaromVisibWave heightAir tempDewpointWater temp
2014-Nov-22 15:23N 50°54' W 001°24'0 0.0
2014-Nov-22 14:29N 50°54' W 001°24'0 0.0
2014-Nov-22 13:29N 50°54' W 001°24'0 0.0
2014-Nov-22 12:29N 50°54' W 001°24'0 0.0
2014-Nov-22 11:20N 50°54' W 001°24'0 0.0
2014-Nov-22 10:29N 50°54' W 001°24'0 0.0
2014-Nov-22 09:29N 50°54' W 001°24'0 0.0
2014-Nov-22 08:17N 50°54' W 001°24'0 0.0
2014-Nov-22 07:05N 50°54' W 001°24'1 1.4
2014-Nov-22 06:32N 50°53' W 001°24'8 7.5
2014-Nov-22 05:30N 50°45' W 001°22'3213.2
2014-Nov-22 03:04N 50°23' W 001°59'714.4
2014-Nov-22 02:33N 50°18' W 002°08'1413.7
2014-Nov-22 01:33N 50°08' W 002°21'19413.8
2014-Nov-21 11:30N 47°54' W 005°55'1514.7
2014-Nov-21 10:31N 47°41' W 006°06'1415.1
2014-Nov-21 09:33N 47°29' W 006°17'1414.5
2014-Nov-21 08:33N 47°16' W 006°27'1220.7
2014-Nov-21 08:00N 47°06' W 006°36'35014.6 170 / 81012.2 5.4 15.014.714.0
2014-Nov-20 08:00N 41°42' W 009°42'15114.5 140 / 251008.8 5.4 17.415.416.0
2014-Nov-19 21:31N 39°11' W 009°45'2014.8
2014-Nov-19 20:11N 38°51' W 009°43'1114.8
2014-Nov-19 19:28N 38°40' W 009°41'1313.9
2014-Nov-19 18:31N 38°36' W 009°25'1212.0
2014-Nov-19 17:32N 38°41' W 009°12'3 3.4
2014-Nov-19 16:33N 38°43' W 009°07'0 0.0
2014-Nov-19 15:32N 38°43' W 009°07'0 0.0
2014-Nov-19 14:31N 38°43' W 009°07'0 0.0
2014-Nov-19 13:32N 38°43' W 009°07'0 0.0
2014-Nov-19 12:32N 38°43' W 009°07'0 0.0
2014-Nov-19 11:31N 38°43' W 009°07'0 0.0
2014-Nov-19 10:33N 38°43' W 009°07'0 0.0
2014-Nov-19 09:32N 38°43' W 009°07'0 0.3
2014-Nov-19 08:33N 38°42' W 009°07'10 9.8
2014-Nov-19 07:33N 38°40' W 009°19'5517.6
2014-Nov-19 04:24N 37°53' W 009°56'1719.0
2014-Nov-19 03:29N 37°37' W 010°07'1818.7
2014-Nov-19 02:32N 37°22' W 010°18'52918.5
2014-Nov-17 22:00N 29°36' W 015°18'6816.9 260 / 101014.510.8 21.817.823.0
2014-Nov-17 18:00N 28°36' W 015°54'   280 / 161012.510.8 22.317.823.0
2014-Nov-14 21:00N 31°36' W 017°00'1014.8 340 / 171019.810.8 21.015.723.0
2014-Nov-14 20:19N 31°45' W 017°04'1315.9
2014-Nov-14 19:32N 31°57' W 017°02'1616.3
2014-Nov-14 18:33N 32°13' W 016°59'1717.4
2014-Nov-14 17:33N 32°30' W 016°56'8 7.5
2014-Nov-14 16:28N 32°39' W 016°55'0 0.0
2014-Nov-14 15:26N 32°39' W 016°55'0 0.0
2014-Nov-14 14:34N 32°39' W 016°55'0 0.0
2014-Nov-14 12:31N 32°39' W 016°55'0 0.0
2014-Nov-14 11:32N 32°39' W 016°55'0 0.0
2014-Nov-14 10:29N 32°39' W 016°55'0 0.0
2014-Nov-14 09:29N 32°39' W 016°55'0 0.0
2014-Nov-14 08:29N 32°39' W 016°55'0 0.2
2014-Nov-14 07:33N 32°39' W 016°54'5 5.0
2014-Nov-14 06:33N 32°38' W 016°49'19914.7
2014-Nov-13 17:00N 35°30' W 014°48'   260 / 251009.410.8 20.517.321.0

Dump ship's entire track history